createdAt,value
2018-03-01T00:00:20.703Z,0
2018-03-01T00:01:30.479Z,0
2018-03-01T00:02:40.527Z,0
2018-03-01T00:03:50.051Z,0
2018-03-01T00:04:59.852Z,0
2018-03-01T00:06:09.428Z,0
2018-03-01T00:07:19.210Z,0
2018-03-01T00:08:29.010Z,0
2018-03-01T00:09:39.046Z,0
2018-03-01T00:10:48.886Z,0
2018-03-01T00:11:58.937Z,0
2018-03-01T00:13:08.448Z,0
2018-03-01T00:14:18.261Z,0
2018-03-01T00:15:28.067Z,0
2018-03-01T00:16:37.601Z,0
2018-03-01T00:17:47.675Z,0
2018-03-01T00:18:57.741Z,0
2018-03-01T00:20:07.531Z,0
2018-03-01T00:21:17.329Z,0
2018-03-01T00:22:26.950Z,0
2018-03-01T00:23:36.716Z,0
2018-03-01T00:24:45.977Z,0
2018-03-01T00:25:56.020Z,0
2018-03-01T00:27:05.821Z,0
2018-03-01T00:28:15.602Z,0
2018-03-01T00:29:25.382Z,0
2018-03-01T00:30:35.465Z,0
2018-03-01T00:31:44.998Z,0
2018-03-01T00:32:55.052Z,0
2018-03-01T00:34:04.904Z,0
2018-03-01T00:35:14.688Z,0
2018-03-01T00:36:24.735Z,0
2018-03-01T00:37:34.786Z,0
2018-03-01T00:38:44.842Z,0
2018-03-01T00:39:54.897Z,0
2018-03-01T00:41:04.165Z,0
2018-03-01T00:42:13.716Z,0
2018-03-01T00:43:23.773Z,0
2018-03-01T00:44:33.813Z,0
2018-03-01T00:45:43.612Z,0
2018-03-01T00:46:53.153Z,0
2018-03-01T00:48:03.242Z,0
2018-03-01T00:49:13.276Z,0
2018-03-01T00:50:22.810Z,0
2018-03-01T00:51:32.882Z,0
2018-03-01T00:52:42.688Z,0
2018-03-01T00:53:52.219Z,0
2018-03-01T00:55:02.262Z,0
2018-03-01T00:56:11.800Z,0
2018-03-01T00:57:21.591Z,0
2018-03-01T00:58:31.637Z,0
2018-03-01T00:59:41.694Z,0
2018-03-01T01:00:51.497Z,0
2018-03-01T01:02:01.286Z,0
2018-03-01T01:03:10.801Z,0
2018-03-01T01:04:20.321Z,0
2018-03-01T01:05:30.373Z,0
2018-03-01T01:06:40.442Z,0
2018-03-01T01:07:50.226Z,0
2018-03-01T01:09:00.278Z,0
2018-03-01T01:10:10.066Z,0
2018-03-01T01:11:20.101Z,0
2018-03-01T01:12:29.868Z,0
2018-03-01T01:13:39.634Z,0
2018-03-01T01:14:49.416Z,0
2018-03-01T01:15:59.192Z,0
2018-03-01T01:17:09.249Z,0
2018-03-01T01:18:19.319Z,0
2018-03-01T01:19:28.563Z,0
2018-03-01T01:20:38.355Z,0
2018-03-01T01:21:48.123Z,0
2018-03-01T01:22:57.920Z,0
2018-03-01T01:24:07.972Z,0
2018-03-01T01:25:17.811Z,0
2018-03-01T01:26:27.874Z,0
2018-03-01T01:27:37.915Z,0
2018-03-01T01:28:47.684Z,0
2018-03-01T01:29:56.936Z,0
2018-03-01T01:31:06.976Z,0
2018-03-01T01:32:16.763Z,0
2018-03-01T01:33:26.546Z,0
2018-03-01T01:34:36.111Z,0
2018-03-01T01:35:45.897Z,0
2018-03-01T01:36:55.679Z,0
2018-03-01T01:38:05.468Z,0
2018-03-01T01:39:15.003Z,0
2018-03-01T01:40:25.047Z,0
2018-03-01T01:41:35.101Z,0
2018-03-01T01:42:44.620Z,0
2018-03-01T01:43:54.138Z,0
2018-03-01T01:45:04.172Z,0
2018-03-01T01:46:13.976Z,0
2018-03-01T01:47:24.027Z,0
2018-03-01T01:48:33.886Z,0
2018-03-01T01:49:43.928Z,0
2018-03-01T01:50:53.981Z,0
2018-03-01T01:52:03.503Z,0
2018-03-01T01:53:13.548Z,0
2018-03-01T01:54:23.385Z,0
2018-03-01T01:55:33.182Z,0
2018-03-01T01:56:42.722Z,0
2018-03-01T01:57:52.815Z,0
2018-03-01T01:59:02.599Z,0
2018-03-01T02:00:12.544Z,0
2018-03-01T02:01:22.331Z,0
2018-03-01T02:02:32.122Z,0
2018-03-01T02:03:41.897Z,0
2018-03-01T02:04:51.935Z,0
2018-03-01T02:06:02.003Z,0
2018-03-01T02:07:11.789Z,0
2018-03-01T02:08:21.836Z,0
2018-03-01T02:09:31.958Z,0
2018-03-01T02:10:41.741Z,0
2018-03-01T02:11:50.993Z,0
2018-03-01T02:13:01.025Z,0
2018-03-01T02:14:11.072Z,0
2018-03-01T02:15:21.142Z,0
2018-03-01T02:16:31.180Z,0
2018-03-01T02:17:40.965Z,0
2018-03-01T02:18:51.014Z,0
2018-03-01T02:20:01.045Z,0
2018-03-01T02:21:10.622Z,0
2018-03-01T02:22:20.676Z,0
2018-03-01T02:23:30.722Z,0
2018-03-01T02:24:40.507Z,0
2018-03-01T02:25:50.560Z,0
2018-03-01T02:26:59.811Z,0
2018-03-01T02:28:09.882Z,0
2018-03-01T02:29:19.925Z,0
2018-03-01T02:30:29.981Z,0
2018-03-01T02:31:40.026Z,0
2018-03-01T02:32:49.870Z,0
2018-03-01T02:33:59.958Z,0
2018-03-01T02:35:10.020Z,0
2018-03-01T02:36:19.812Z,0
2018-03-01T02:37:29.598Z,0
2018-03-01T02:38:39.645Z,0
2018-03-01T02:39:49.690Z,0
2018-03-01T02:40:59.476Z,0
2018-03-01T02:42:09.547Z,0
2018-03-01T02:43:19.600Z,0
2018-03-01T02:44:29.118Z,0
2018-03-01T02:45:39.430Z,0
2018-03-01T02:46:49.495Z,0
2018-03-01T02:47:59.016Z,0
2018-03-01T02:49:09.072Z,0
2018-03-01T02:50:19.108Z,0
2018-03-01T02:51:28.623Z,0
2018-03-01T02:52:38.685Z,0
2018-03-01T02:53:48.473Z,0
2018-03-01T02:54:58.243Z,0
2018-03-01T02:56:08.288Z,0
2018-03-01T02:57:18.089Z,0
2018-03-01T02:58:28.462Z,0
2018-03-01T02:59:38.520Z,0
2018-03-01T03:00:48.572Z,0
2018-03-01T03:01:58.358Z,0
2018-03-01T03:03:08.154Z,0
2018-03-01T03:04:17.986Z,0
2018-03-01T03:05:28.049Z,0
2018-03-01T03:06:38.102Z,0
2018-03-01T03:07:47.878Z,0
2018-03-01T03:39:13.558Z,0
2018-03-01T03:40:23.583Z,0
2018-03-01T03:41:33.638Z,0
2018-03-01T03:42:43.692Z,0
2018-03-01T03:43:53.472Z,0
2018-03-01T03:45:03.245Z,0
2018-03-01T03:46:13.022Z,0
2018-03-01T03:47:22.792Z,0
2018-03-01T03:48:32.847Z,0
2018-03-01T03:49:42.624Z,0
2018-03-01T03:50:52.694Z,0
2018-03-01T03:52:02.732Z,0
2018-03-01T03:53:12.777Z,0
2018-03-01T03:54:22.813Z,0
2018-03-01T03:55:32.878Z,0
2018-03-01T03:56:42.920Z,0
2018-03-01T03:57:52.964Z,0
2018-03-01T03:59:03.036Z,0
2018-03-01T04:00:13.081Z,0
2018-03-01T04:01:23.130Z,0
2018-03-01T04:02:32.909Z,0
2018-03-01T04:03:43.028Z,0
2018-03-01T04:04:52.820Z,0
2018-03-01T04:06:02.866Z,0
2018-03-01T04:07:12.910Z,0
2018-03-01T04:08:22.478Z,0
2018-03-01T04:09:32.525Z,0
2018-03-01T04:10:42.303Z,0
2018-03-01T04:11:52.353Z,0
2018-03-01T04:13:02.404Z,0
2018-03-01T04:14:12.452Z,0
2018-03-01T04:15:22.241Z,0
2018-03-01T04:16:32.033Z,0
2018-03-01T04:17:41.826Z,0
2018-03-01T04:18:51.867Z,0
2018-03-01T04:20:01.958Z,0
2018-03-01T04:21:11.730Z,0
2018-03-01T04:22:21.527Z,0
2018-03-01T04:23:31.567Z,0
2018-03-01T04:24:41.351Z,0
2018-03-01T04:25:51.185Z,0
2018-03-01T04:27:00.974Z,0
2018-03-01T04:28:10.757Z,0
2018-03-01T04:29:20.555Z,0
2018-03-01T04:30:30.604Z,0
2018-03-01T04:31:40.375Z,0
2018-03-01T04:32:49.912Z,0
2018-03-01T04:33:59.682Z,0
2018-03-01T04:35:09.217Z,0
2018-03-01T04:36:18.730Z,0
2018-03-01T04:37:28.508Z,0
2018-03-01T04:38:38.570Z,0
2018-03-01T04:39:48.617Z,0
2018-03-01T04:40:58.688Z,0
2018-03-01T04:42:08.740Z,0
2018-03-01T04:43:18.786Z,0
2018-03-01T04:44:28.571Z,0
2018-03-01T04:45:38.633Z,0
2018-03-01T04:46:48.671Z,0
2018-03-01T04:47:58.722Z,0
2018-03-01T04:49:08.847Z,0
2018-03-01T04:50:18.930Z,0
2018-03-01T04:51:29.000Z,0
2018-03-01T04:52:38.789Z,0
2018-03-01T04:53:48.564Z,0
2018-03-01T04:54:58.348Z,0
2018-03-01T04:56:08.130Z,0
2018-03-01T04:57:17.937Z,0
2018-03-01T04:58:27.782Z,0
2018-03-01T04:59:37.571Z,0
2018-03-01T05:00:47.417Z,0
2018-03-01T05:01:57.478Z,0
2018-03-01T05:03:07.521Z,0
2018-03-01T05:04:17.306Z,4
2018-03-01T05:05:27.076Z,4
2018-03-01T05:06:37.173Z,0
2018-03-01T05:07:47.236Z,0
2018-03-01T05:08:57.289Z,4
2018-03-01T05:10:07.067Z,4
2018-03-01T05:11:17.129Z,4
2018-03-01T05:12:26.916Z,0
2018-03-01T05:13:36.952Z,4
2018-03-01T05:14:47.019Z,4
2018-03-01T05:15:57.106Z,8
2018-03-01T05:17:06.894Z,4
2018-03-01T05:18:16.685Z,8
2018-03-01T05:19:26.487Z,12
2018-03-01T05:20:36.281Z,12
2018-03-01T05:21:46.340Z,12
2018-03-01T05:22:56.386Z,20
2018-03-01T05:24:06.162Z,24
2018-03-01T05:25:16.226Z,28
2018-03-01T05:26:26.026Z,28
2018-03-01T05:27:36.084Z,36
2018-03-01T05:28:46.143Z,40
2018-03-01T05:29:55.926Z,48
2018-03-01T05:31:05.715Z,56
2018-03-01T05:32:15.760Z,64
2018-03-01T05:33:25.811Z,76
2018-03-01T05:34:35.621Z,84
2018-03-01T05:35:45.160Z,96
2018-03-01T05:36:54.968Z,108
2018-03-01T05:38:05.027Z,124
2018-03-01T05:39:15.071Z,136
2018-03-01T05:40:25.126Z,152
2018-03-01T05:41:35.470Z,168
2018-03-01T05:42:45.260Z,184
2018-03-01T05:43:55.293Z,208
2018-03-01T05:45:05.338Z,228
2018-03-01T05:46:15.432Z,248
2018-03-01T05:47:25.215Z,268
2018-03-01T05:48:35.257Z,296
2018-03-01T05:49:45.348Z,320
2018-03-01T05:50:55.425Z,348
2018-03-01T05:52:05.464Z,380
2018-03-01T05:53:15.304Z,412
2018-03-01T05:54:25.084Z,448
2018-03-01T05:55:35.131Z,484
2018-03-01T05:56:44.932Z,512
2018-03-01T05:57:54.723Z,544
2018-03-01T05:59:04.519Z,576
2018-03-01T06:00:14.053Z,608
2018-03-01T06:01:23.833Z,644
2018-03-01T06:02:33.649Z,676
2018-03-01T06:03:43.518Z,716
2018-03-01T06:04:53.345Z,752
2018-03-01T06:06:03.391Z,792
2018-03-01T06:07:13.174Z,832
2018-03-01T06:08:22.685Z,864
2018-03-01T06:09:32.871Z,908
2018-03-01T06:10:42.968Z,948
2018-03-01T06:11:52.776Z,988
2018-03-01T06:13:02.557Z,1028
2018-03-01T06:14:12.614Z,1072
2018-03-01T06:15:22.665Z,1116
2018-03-01T06:16:32.445Z,1160
2018-03-01T06:17:42.496Z,1204
2018-03-01T06:18:52.562Z,1244
2018-03-01T06:20:02.648Z,1288
2018-03-01T06:21:12.161Z,1328
2018-03-01T06:22:22.201Z,1364
2018-03-01T06:23:31.992Z,1400
2018-03-01T06:24:42.038Z,1396
2018-03-01T06:25:51.831Z,1420
2018-03-01T06:27:01.625Z,1476
2018-03-01T06:28:11.452Z,1524
2018-03-01T06:29:21.483Z,1584
2018-03-01T06:30:31.270Z,1620
2018-03-01T06:31:41.051Z,1656
2018-03-01T06:32:51.097Z,1684
2018-03-01T06:34:01.134Z,1696
2018-03-01T06:35:11.203Z,1724
2018-03-01T06:36:21.274Z,1808
2018-03-01T06:37:30.804Z,1844
2018-03-01T06:38:40.859Z,1856
2018-03-01T06:39:50.907Z,1932
2018-03-01T06:41:00.691Z,1988
2018-03-01T06:42:10.737Z,2028
2018-03-01T06:43:20.791Z,2124
2018-03-01T06:44:30.576Z,2176
2018-03-01T06:45:40.637Z,2232
2018-03-01T06:46:50.432Z,2264
2018-03-01T06:48:00.493Z,2300
2018-03-01T06:49:10.684Z,2332
2018-03-01T06:50:20.739Z,2376
2018-03-01T06:51:30.274Z,2408
2018-03-01T06:52:40.318Z,2452
2018-03-01T06:53:50.094Z,2496
2018-03-01T06:54:59.606Z,2508
2018-03-01T06:56:09.752Z,2516
2018-03-01T06:57:19.650Z,2568
2018-03-01T06:58:29.440Z,2596
2018-03-01T06:59:39.217Z,2600
2018-03-01T07:00:48.992Z,2744
2018-03-01T07:01:58.791Z,2780
2018-03-01T07:03:08.607Z,2796
2018-03-01T07:04:18.662Z,2720
2018-03-01T07:05:28.466Z,2768
2018-03-01T07:06:38.526Z,2836
2018-03-01T07:07:48.320Z,2904
2018-03-01T07:08:58.418Z,2952
2018-03-01T07:10:08.187Z,2996
2018-03-01T07:11:18.429Z,3044
2018-03-01T07:12:28.546Z,3084
2018-03-01T07:13:38.352Z,3128
2018-03-01T07:14:48.137Z,3164
2018-03-01T07:15:58.179Z,3228
2018-03-01T07:17:08.228Z,3252
2018-03-01T07:18:18.019Z,3316
2018-03-01T07:19:28.075Z,3344
2018-03-01T07:20:38.142Z,3420
2018-03-01T07:21:47.939Z,3432
2018-03-01T07:22:57.989Z,3104
2018-03-01T07:24:08.070Z,3264
2018-03-01T07:25:17.593Z,3368
2018-03-01T07:26:26.948Z,3520
2018-03-01T07:27:36.480Z,3628
2018-03-01T07:28:46.270Z,3704
2018-03-01T07:29:56.058Z,3768
2018-03-01T07:31:06.104Z,3800
2018-03-01T07:32:15.697Z,3728
2018-03-01T07:33:25.493Z,3648
2018-03-01T07:34:35.578Z,3776
2018-03-01T07:35:44.841Z,3764
2018-03-01T07:36:54.647Z,3808
2018-03-01T07:38:04.819Z,3884
2018-03-01T07:39:14.072Z,3856
2018-03-01T07:40:23.600Z,3872
2018-03-01T07:41:33.665Z,3920
2018-03-01T07:42:43.717Z,3948
2018-03-01T07:43:53.511Z,4008
2018-03-01T07:45:03.547Z,4112
2018-03-01T07:46:13.547Z,4164
2018-03-01T07:47:23.607Z,4068
2018-03-01T07:48:33.136Z,4028
2018-03-01T07:49:42.920Z,4080
2018-03-01T07:50:52.714Z,4164
2018-03-01T07:52:02.771Z,4288
2018-03-01T07:53:12.817Z,4296
2018-03-01T07:54:22.872Z,4300
2018-03-01T07:55:32.940Z,4340
2018-03-01T07:56:42.739Z,4400
2018-03-01T07:57:52.791Z,4420
2018-03-01T07:59:02.327Z,4428
2018-03-01T08:00:12.400Z,4424
2018-03-01T08:01:22.466Z,4440
2018-03-01T08:02:31.996Z,4456
2018-03-01T08:03:41.789Z,4564
2018-03-01T08:04:51.590Z,4620
2018-03-01T08:06:01.390Z,4664
2018-03-01T08:07:11.174Z,4656
2018-03-01T08:08:20.966Z,4692
2018-03-01T08:09:30.805Z,4720
2018-03-01T08:10:40.593Z,4748
2018-03-01T08:11:50.662Z,4788
2018-03-01T08:13:00.455Z,4800
2018-03-01T08:14:09.727Z,4788
2018-03-01T08:15:19.782Z,4848
2018-03-01T08:16:29.569Z,4860
2018-03-01T08:17:38.841Z,5000
2018-03-01T08:18:48.613Z,5024
2018-03-01T08:19:58.148Z,5036
2018-03-01T08:21:08.205Z,5096
2018-03-01T08:22:17.741Z,5148
2018-03-01T08:23:27.795Z,5204
2018-03-01T08:24:37.848Z,5304
2018-03-01T08:25:47.909Z,5336
2018-03-01T08:26:57.975Z,5352
2018-03-01T08:28:08.061Z,5368
2018-03-01T08:29:17.876Z,5376
2018-03-01T08:30:28.032Z,5408
2018-03-01T08:31:38.080Z,5412
2018-03-01T08:32:47.865Z,5456
2018-03-01T08:33:57.909Z,5492
2018-03-01T08:35:07.989Z,5584
2018-03-01T08:36:18.115Z,5552
2018-03-01T08:37:27.977Z,5612
2018-03-01T08:38:38.078Z,5616
2018-03-01T08:39:48.131Z,5660
2018-03-01T08:40:58.187Z,5724
2018-03-01T08:42:08.290Z,5724
2018-03-01T08:43:18.071Z,5756
2018-03-01T08:44:28.141Z,5808
2018-03-01T08:45:37.699Z,5880
2018-03-01T08:46:47.786Z,5980
2018-03-01T08:47:57.840Z,6012
2018-03-01T08:49:07.893Z,6048
2018-03-01T08:50:17.701Z,6128
2018-03-01T08:51:27.492Z,6160
2018-03-01T08:52:37.014Z,6212
2018-03-01T08:53:47.129Z,6332
2018-03-01T08:54:57.194Z,6396
2018-03-01T08:56:07.292Z,6508
2018-03-01T08:57:16.831Z,6556
2018-03-01T08:58:26.900Z,6552
2018-03-01T08:59:36.178Z,6728
2018-03-01T09:00:45.996Z,6760
2018-03-01T09:01:56.083Z,6760
2018-03-01T09:03:05.867Z,6812
2018-03-01T09:04:15.934Z,6844
2018-03-01T09:05:26.208Z,6844
2018-03-01T09:06:36.270Z,6924
2018-03-01T09:07:46.050Z,6940
2018-03-01T09:08:55.581Z,6952
2018-03-01T09:10:05.541Z,7028
2018-03-01T09:11:15.381Z,7004
2018-03-01T09:12:25.437Z,7036
2018-03-01T09:13:35.496Z,7104
2018-03-01T09:14:45.543Z,7016
2018-03-01T09:15:55.091Z,7280
2018-03-01T09:17:04.622Z,7360
2018-03-01T09:18:14.417Z,7332
2018-03-01T09:19:24.512Z,7440
2018-03-01T09:20:34.068Z,7420
2018-03-01T09:21:44.122Z,7492
2018-03-01T09:22:53.914Z,7488
2018-03-01T09:24:03.971Z,7492
2018-03-01T09:25:14.042Z,7428
2018-03-01T09:26:24.107Z,7600
2018-03-01T09:27:34.165Z,7572
2018-03-01T09:28:44.292Z,7276
2018-03-01T09:29:53.820Z,7360
2018-03-01T09:31:03.350Z,7780
2018-03-01T09:32:13.164Z,7732
2018-03-01T09:33:23.219Z,7620
2018-03-01T09:34:33.326Z,7240
2018-03-01T09:35:43.408Z,7624
2018-03-01T09:36:53.502Z,7544
2018-03-01T09:38:03.567Z,7372
2018-03-01T09:39:13.379Z,7464
2018-03-01T09:40:23.778Z,7128
2018-03-01T09:41:33.832Z,7620
2018-03-01T09:42:43.903Z,7604
2018-03-01T09:43:53.962Z,7576
2018-03-01T09:45:03.765Z,7852
2018-03-01T09:46:13.619Z,7560
2018-03-01T09:47:23.671Z,7728
2018-03-01T09:48:33.472Z,7784
2018-03-01T09:49:43.286Z,7864
2018-03-01T09:50:53.086Z,8012
2018-03-01T09:52:02.930Z,7988
2018-03-01T09:53:12.986Z,7844
2018-03-01T09:54:23.048Z,8156
2018-03-01T09:55:33.147Z,7808
2018-03-01T09:56:43.227Z,7964
2018-03-01T09:57:53.312Z,7872
2018-03-01T09:59:03.428Z,8092
2018-03-01T10:00:13.214Z,8028
2018-03-01T10:01:22.801Z,8024
2018-03-01T10:02:32.858Z,8072
2018-03-01T10:03:42.714Z,7872
2018-03-01T10:04:52.816Z,7960
2018-03-01T10:06:02.363Z,8072
2018-03-01T10:07:11.957Z,8032
2018-03-01T10:08:22.029Z,7980
2018-03-01T10:09:31.884Z,8112
2018-03-01T10:10:42.170Z,8040
2018-03-01T10:11:52.008Z,7772
2018-03-01T10:13:01.824Z,7988
2018-03-01T10:14:11.630Z,7428
2018-03-01T10:15:21.208Z,6844
2018-03-01T10:16:30.489Z,7600
2018-03-01T10:17:40.309Z,7348
2018-03-01T10:18:49.591Z,7028
2018-03-01T10:19:59.403Z,7332
2018-03-01T10:21:09.478Z,7592
2018-03-01T10:22:19.291Z,7508
2018-03-01T10:23:29.106Z,7316
2018-03-01T10:24:38.908Z,7740
2018-03-01T10:25:48.985Z,7372
2018-03-01T10:26:59.044Z,6652
2018-03-01T10:28:09.129Z,6904
2018-03-01T10:29:18.679Z,6816
2018-03-01T10:30:28.741Z,6936
2018-03-01T10:31:38.268Z,7108
2018-03-01T10:32:48.342Z,6816
2018-03-01T10:33:58.140Z,7208
2018-03-01T10:35:07.935Z,7580
2018-03-01T10:36:17.466Z,7564
2018-03-01T10:37:27.556Z,7624
2018-03-01T10:38:37.659Z,6908
2018-03-01T10:39:47.745Z,5760
2018-03-01T10:40:57.817Z,7984
2018-03-01T10:42:07.675Z,8288
2018-03-01T10:43:17.210Z,8348
2018-03-01T10:44:37.152Z,7996
2018-03-01T10:45:47.169Z,8048
2018-03-01T10:46:57.285Z,7660
2018-03-01T10:48:07.353Z,7536
2018-03-01T10:49:17.433Z,7556
2018-03-01T10:50:27.228Z,6980
2018-03-01T10:51:37.040Z,6964
2018-03-01T10:52:53.630Z,6940
2018-03-01T10:54:03.819Z,5792
2018-03-01T10:55:13.169Z,6724
2018-03-01T10:56:23.246Z,7092
2018-03-01T10:57:32.803Z,6496
2018-03-01T10:58:42.593Z,6740
2018-03-01T10:59:52.688Z,6192
2018-03-01T11:01:02.765Z,6536
2018-03-01T11:02:12.868Z,6636
2018-03-01T11:03:22.973Z,5812
2018-03-01T11:04:32.831Z,6324
2018-03-01T11:05:42.372Z,6776
2018-03-01T11:06:52.201Z,6164
2018-03-01T11:08:01.756Z,6452
2018-03-01T11:09:11.565Z,6840
2018-03-01T11:10:21.386Z,5912
2018-03-01T11:11:31.196Z,5924
2018-03-01T11:12:41.359Z,4800
2018-03-01T11:13:51.188Z,5012
2018-03-01T11:15:01.062Z,6328
2018-03-01T11:16:11.140Z,4976
2018-03-01T11:17:21.039Z,6708
2018-03-01T11:18:31.196Z,4596
2018-03-01T11:19:41.012Z,6716
2018-03-01T11:20:50.816Z,6320
2018-03-01T11:22:00.076Z,6620
2018-03-01T11:23:09.931Z,6940
2018-03-01T11:24:19.484Z,5100
2018-03-01T11:25:29.015Z,4964
2018-03-01T11:26:39.127Z,5088
2018-03-01T11:27:49.194Z,5296
2018-03-01T11:28:59.399Z,5996
2018-03-01T11:30:09.268Z,5888
2018-03-01T11:31:19.097Z,6256
2018-03-01T11:32:28.876Z,6776
2018-03-01T11:33:38.936Z,6636
2018-03-01T11:34:49.229Z,6724
2018-03-01T11:35:59.376Z,6396
2018-03-01T11:37:09.173Z,6196
2018-03-01T11:38:18.993Z,6388
2018-03-01T11:39:28.781Z,6676
2018-03-01T11:40:38.838Z,7428
2018-03-01T11:41:48.905Z,6640
2018-03-01T11:42:58.976Z,6628
2018-03-01T11:44:08.509Z,6840
2018-03-01T11:45:18.570Z,5364
2018-03-01T11:46:28.368Z,5116
2018-03-01T11:47:38.448Z,5448
2018-03-01T11:48:48.260Z,5900
2018-03-01T11:49:58.321Z,4784
2018-03-01T11:51:08.417Z,4564
2018-03-01T11:52:17.962Z,4528
2018-03-01T11:53:28.082Z,4636
2018-03-01T11:54:37.916Z,4752
2018-03-01T11:55:47.464Z,4692
2018-03-01T11:56:57.537Z,4752
2018-03-01T11:58:07.348Z,5088
2018-03-01T11:59:17.467Z,5072
2018-03-01T12:00:27.566Z,4672
2018-03-01T12:01:37.410Z,4740
2018-03-01T12:02:47.247Z,4808
2018-03-01T12:03:57.066Z,4624
2018-03-01T12:05:07.198Z,4672
2018-03-01T12:06:17.040Z,4728
2018-03-01T12:07:27.153Z,4756
2018-03-01T12:08:37.243Z,4856
2018-03-01T12:09:47.352Z,4712
2018-03-01T12:10:57.274Z,4676
2018-03-01T12:12:07.105Z,4680
2018-03-01T12:13:17.169Z,4808
2018-03-01T12:14:26.992Z,5100
2018-03-01T12:15:37.095Z,5192
2018-03-01T12:16:47.266Z,5276
2018-03-01T12:17:57.365Z,5392
2018-03-01T12:19:07.435Z,5552
2018-03-01T12:20:17.244Z,5376
2018-03-01T12:21:27.327Z,5060
2018-03-01T12:22:37.404Z,4624
2018-03-01T12:23:47.467Z,4152
2018-03-01T12:24:57.264Z,3980
2018-03-01T12:26:07.348Z,4012
2018-03-01T12:27:17.447Z,3916
2018-03-01T12:28:27.600Z,3656
2018-03-01T12:29:37.432Z,3556
2018-03-01T12:30:47.525Z,3432
2018-03-01T12:31:57.617Z,3272
2018-03-01T12:33:07.702Z,3312
2018-03-01T12:34:17.853Z,3368
2018-03-01T12:35:27.914Z,3408
2018-03-01T12:36:37.728Z,3416
2018-03-01T12:37:47.807Z,3360
2018-03-01T12:38:57.870Z,3336
2018-03-01T12:40:07.736Z,3476
2018-03-01T12:41:17.543Z,3556
2018-03-01T12:42:27.934Z,3580
2018-03-01T12:43:39.319Z,3520
2018-03-01T12:44:51.412Z,3564
2018-03-01T12:46:08.139Z,3468
2018-03-01T12:47:25.702Z,3340
2018-03-01T12:48:43.423Z,3516
2018-03-01T12:49:56.736Z,3732
2018-03-01T12:51:06.882Z,3748
2018-03-01T12:52:17.035Z,3568
2018-03-01T12:53:27.117Z,3636
2018-03-01T12:54:37.183Z,3972
2018-03-01T12:55:47.263Z,4336
2018-03-01T12:56:57.352Z,4568
2018-03-01T12:58:07.425Z,4612
2018-03-01T12:59:17.201Z,4344
2018-03-01T13:00:27.277Z,4008
2018-03-01T13:01:37.090Z,3528
2018-03-01T13:02:47.235Z,3344
2018-03-01T13:03:57.311Z,3320
2018-03-01T13:05:07.401Z,3464
2018-03-01T13:06:17.481Z,3672
2018-03-01T13:07:27.559Z,3448
2018-03-01T13:08:37.395Z,3344
2018-03-01T13:09:47.430Z,3228
2018-03-01T13:10:57.527Z,3516
2018-03-01T13:12:07.056Z,3580
2018-03-01T13:13:17.141Z,3416
2018-03-01T13:14:27.264Z,3188
2018-03-01T13:15:37.361Z,2880
2018-03-01T13:16:47.440Z,2588
2018-03-01T13:17:57.250Z,2776
2018-03-01T13:19:07.341Z,3908
2018-03-01T13:20:17.211Z,4052
2018-03-01T13:21:27.021Z,3988
2018-03-01T13:22:36.570Z,3728
2018-03-01T13:23:46.659Z,3144
2018-03-01T13:24:56.749Z,2936
2018-03-01T13:26:06.949Z,3344
2018-03-01T13:27:16.787Z,3236
2018-03-01T13:28:26.859Z,3036
2018-03-01T13:29:36.994Z,3336
2018-03-01T13:30:46.803Z,3368
2018-03-01T13:31:56.901Z,2936
2018-03-01T13:33:06.703Z,2752
2018-03-01T13:34:16.314Z,2540
2018-03-01T13:35:26.364Z,2532
2018-03-01T13:36:36.192Z,2772
2018-03-01T13:37:45.751Z,2860
2018-03-01T13:39:05.405Z,2920
2018-03-01T13:40:15.508Z,2628
2018-03-01T13:41:25.595Z,2452
2018-03-01T13:42:35.691Z,2856
2018-03-01T13:43:45.796Z,2736
2018-03-01T13:44:55.929Z,2432
2018-03-01T13:46:05.765Z,2548
2018-03-01T13:47:15.571Z,2372
2018-03-01T13:48:25.378Z,2460
2018-03-01T13:49:34.657Z,2280
2018-03-01T13:50:44.775Z,2264
2018-03-01T13:51:54.060Z,2312
2018-03-01T13:53:04.168Z,2024
2018-03-01T13:54:14.258Z,2268
2018-03-01T13:55:24.340Z,2208
2018-03-01T13:56:34.155Z,1884
2018-03-01T13:57:43.701Z,1960
2018-03-01T13:58:53.520Z,1924
2018-03-01T14:00:03.569Z,1776
2018-03-01T14:01:13.688Z,1864
2018-03-01T14:02:23.760Z,1788
2018-03-01T14:03:33.578Z,1624
2018-03-01T14:04:43.642Z,1760
2018-03-01T14:05:53.199Z,1676
2018-03-01T14:07:03.270Z,1844
2018-03-01T14:08:13.120Z,1796
2018-03-01T14:09:23.175Z,1560
2018-03-01T14:10:32.765Z,1872
2018-03-01T14:11:42.563Z,1908
2018-03-01T14:12:52.347Z,2140
2018-03-01T14:14:02.153Z,2140
2018-03-01T14:15:12.226Z,1860
2018-03-01T14:16:22.346Z,1700
2018-03-01T14:17:31.873Z,1636
2018-03-01T14:18:41.686Z,1468
2018-03-01T14:19:51.498Z,1436
2018-03-01T14:21:01.560Z,1468
2018-03-01T14:22:11.380Z,1720
2018-03-01T14:23:21.184Z,1580
2018-03-01T14:24:31.259Z,1456
2018-03-01T14:25:41.428Z,1668
2018-03-01T14:26:51.248Z,2064
2018-03-01T14:28:00.794Z,2192
2018-03-01T14:29:10.584Z,2036
2018-03-01T14:30:20.637Z,1888
2018-03-01T14:31:30.177Z,1584
2018-03-01T14:32:40.019Z,1520
2018-03-01T14:33:50.072Z,1728
2018-03-01T14:34:59.603Z,1888
2018-03-01T14:36:09.667Z,1904
2018-03-01T14:37:19.799Z,1932
2018-03-01T14:38:29.943Z,1800
2018-03-01T14:39:40.026Z,1668
2018-03-01T14:40:49.320Z,1628
2018-03-01T14:41:59.109Z,1752
2018-03-01T14:43:08.925Z,1724
2018-03-01T14:44:18.986Z,1536
2018-03-01T14:45:29.058Z,1496
2018-03-01T14:46:38.876Z,1556
2018-03-01T14:47:48.940Z,1624
2018-03-01T14:48:58.812Z,1664
2018-03-01T14:50:08.664Z,1700
2018-03-01T14:51:18.744Z,1532
2018-03-01T14:52:28.812Z,1452
2018-03-01T14:53:38.623Z,1356
2018-03-01T14:54:48.683Z,1340
2018-03-01T14:55:58.845Z,1436
2018-03-01T14:57:08.385Z,1456
2018-03-01T14:58:17.932Z,1496
2018-03-01T14:59:27.474Z,1556
2018-03-01T15:00:37.273Z,1600
2018-03-01T15:01:47.397Z,1616
2018-03-01T15:02:57.487Z,1588
2018-03-01T15:04:07.556Z,1460
2018-03-01T15:05:16.847Z,1444
2018-03-01T15:06:26.661Z,1436
2018-03-01T15:07:36.705Z,1360
2018-03-01T15:08:46.498Z,1324
2018-03-01T15:09:56.572Z,1308
2018-03-01T15:11:06.115Z,1196
2018-03-01T15:12:16.201Z,1084
2018-03-01T15:13:25.754Z,1008
2018-03-01T15:14:35.552Z,1016
2018-03-01T15:15:45.359Z,996
2018-03-01T15:16:55.442Z,968
2018-03-01T15:18:04.713Z,916
2018-03-01T15:19:14.833Z,896
2018-03-01T15:20:24.656Z,928
2018-03-01T15:21:34.736Z,1004
2018-03-01T15:22:44.563Z,1000
2018-03-01T15:23:54.635Z,976
2018-03-01T15:25:04.457Z,984
2018-03-01T15:26:14.548Z,924
2018-03-01T15:27:24.616Z,868
2018-03-01T15:28:34.411Z,852
2018-03-01T15:29:43.947Z,816
2018-03-01T15:30:54.069Z,800
2018-03-01T15:32:04.156Z,860
2018-03-01T15:33:14.223Z,808
2018-03-01T15:34:24.296Z,740
2018-03-01T15:35:34.369Z,704
2018-03-01T15:36:44.490Z,676
2018-03-01T15:37:54.287Z,656
2018-03-01T15:39:04.477Z,640
2018-03-01T15:40:14.026Z,644
2018-03-01T15:41:24.109Z,604
2018-03-01T15:42:33.658Z,576
2018-03-01T15:43:43.752Z,532
2018-03-01T15:44:53.848Z,444
2018-03-01T15:46:04.032Z,408
2018-03-01T15:47:13.871Z,380
2018-03-01T15:48:23.714Z,372
2018-03-01T15:49:34.027Z,392
2018-03-01T15:50:43.817Z,400
2018-03-01T15:51:53.366Z,376
2018-03-01T15:53:02.908Z,332
2018-03-01T15:54:12.742Z,312
2018-03-01T15:55:22.766Z,308
2018-03-01T15:56:32.609Z,304
2018-03-01T15:57:42.440Z,284
2018-03-01T15:58:52.632Z,280
2018-03-01T16:00:02.460Z,260
2018-03-01T16:01:11.748Z,236
2018-03-01T16:02:21.851Z,216
2018-03-01T16:03:31.710Z,208
2018-03-01T16:04:41.515Z,196
2018-03-01T16:05:51.357Z,180
2018-03-01T16:07:01.170Z,164
2018-03-01T16:08:11.287Z,140
2018-03-01T16:09:21.370Z,132
2018-03-01T16:10:31.214Z,128
2018-03-01T16:11:41.276Z,120
2018-03-01T16:12:51.338Z,112
2018-03-01T16:14:01.188Z,116
2018-03-01T16:15:11.261Z,116
2018-03-01T16:16:21.348Z,108
2018-03-01T16:17:31.427Z,104
2018-03-01T16:18:41.489Z,96
2018-03-01T16:19:51.556Z,96
2018-03-01T16:21:01.635Z,88
2018-03-01T16:22:11.733Z,88
2018-03-01T16:23:21.555Z,80
2018-03-01T16:24:31.241Z,76
2018-03-01T16:25:41.423Z,64
2018-03-01T16:26:51.230Z,60
2018-03-01T16:28:01.295Z,52
2018-03-01T16:29:11.360Z,48
2018-03-01T16:30:21.460Z,40
2018-03-01T16:31:31.588Z,40
2018-03-01T16:32:41.663Z,36
2018-03-01T16:33:51.727Z,32
2018-03-01T16:35:01.808Z,32
2018-03-01T16:36:11.897Z,28